CYMT

Chapais Airport

Chibougamau, Quebec, Canada
METAR CYMT 210900Z AUTO 18003KT 9SM CLR 15/12 A3009 RMK SLP191 DENSITY ALT 1300FT
Observed Flight Rules
Jul-21 @ 09:00 UTC (an hour ago) Visual Flight Rules
Wind Visibility Clouds
180° at 3 knots 9 miles
  • Clear skies
Temperatures Readings
Current 15°C / 59°F
Dewpoint 12°C / 54°F
Humidity 82%
Altimeter 30.09" Hg
Pressure 1019.1 hPa
Elevation 387
METAR CYMT 210900Z AUTO 18003KT 9SM CLR 15/12 A3009 RMK SLP191 DENSITY ALT 1300FT
Observed Flight Rules
Jul-21 @ 09:00 UTC
(an hour ago)
VFR
Wind Visibility
180° at 3 knots 9 miles
Clouds
  • Clear skies
Temperature Dewpoint
15°C / 59°F 12°C / 54°F
Humidity Altimeter Pressure
82% 30.09" Hg 1019.1 hPa